createdAt,value
2023-01-21T00:01:48.516Z,0.60
2023-01-21T00:04:16.499Z,0.60
2023-01-21T00:06:44.611Z,0.60
2023-01-21T00:09:12.773Z,0.60
2023-01-21T00:11:42.361Z,0.50
2023-01-21T00:14:10.282Z,0.50
2023-01-21T00:16:38.277Z,0.50
2023-01-21T00:19:06.254Z,0.50
2023-01-21T00:21:34.154Z,0.50
2023-01-21T00:24:02.153Z,0.50
2023-01-21T00:26:30.069Z,0.50
2023-01-21T00:28:59.358Z,0.50
2023-01-21T00:31:27.889Z,0.40
2023-01-21T00:33:55.973Z,0.40
2023-01-21T00:36:29.572Z,0.40
2023-01-21T00:38:57.760Z,0.40
2023-01-21T00:41:26.215Z,0.40
2023-01-21T00:43:54.512Z,0.40
2023-01-21T00:46:23.909Z,0.40
2023-01-21T00:48:51.891Z,0.40
2023-01-21T00:51:19.920Z,0.40
2023-01-21T00:53:47.843Z,0.40
2023-01-21T00:56:15.855Z,0.30
2023-01-21T00:58:44.341Z,0.30
2023-01-21T01:01:14.507Z,0.30
2023-01-21T01:03:44.312Z,0.30
2023-01-21T01:06:14.548Z,0.30
2023-01-21T01:08:43.083Z,0.30
2023-01-21T01:11:11.911Z,0.30
2023-01-21T01:13:40.990Z,0.30
2023-01-21T01:16:09.922Z,0.30
2023-01-21T01:18:38.610Z,0.30
2023-01-21T01:21:11.245Z,0.30
2023-01-21T01:23:39.222Z,0.30
2023-01-21T01:26:11.231Z,0.30
2023-01-21T01:28:39.614Z,0.30
2023-01-21T01:31:09.839Z,0.30
2023-01-21T01:33:37.896Z,0.30
2023-01-21T01:36:09.522Z,0.30
2023-01-21T01:38:37.479Z,0.30
2023-01-21T01:41:05.762Z,0.30
2023-01-21T01:43:53.231Z,0.30
2023-01-21T01:46:21.753Z,0.30
2023-01-21T01:48:53.507Z,0.30
2023-01-21T01:51:27.539Z,0.30
2023-01-21T01:53:55.569Z,0.20
2023-01-21T01:56:23.792Z,0.20
2023-01-21T01:58:52.481Z,0.20
2023-01-21T02:01:20.860Z,0.20
2023-01-21T02:03:54.409Z,0.20
2023-01-21T02:06:23.721Z,0.20
2023-01-21T02:08:52.965Z,0.20
2023-01-21T02:11:21.463Z,0.20
2023-01-21T02:13:53.606Z,0.20
2023-01-21T02:16:38.569Z,0.20
2023-01-21T02:19:42.239Z,0.20
2023-01-21T02:22:20.879Z,0.20
2023-01-21T02:25:27.455Z,0.20
2023-01-21T02:28:07.120Z,0.30
2023-01-21T02:31:07.984Z,0.30
2023-01-21T02:33:47.564Z,0.30
2023-01-21T02:36:32.483Z,0.30
2023-01-21T02:39:07.823Z,0.30
2023-01-21T02:41:46.861Z,0.20
2023-01-21T02:44:20.640Z,0.20
2023-01-21T02:46:53.725Z,0.30
2023-01-21T02:49:28.030Z,0.20
2023-01-21T02:51:56.106Z,0.20
2023-01-21T02:54:50.200Z,0.20
2023-01-21T02:57:25.963Z,0.20
2023-01-21T02:59:57.400Z,0.20
2023-01-21T03:02:41.486Z,0.20
2023-01-21T03:05:18.528Z,0.20
2023-01-21T03:07:51.368Z,0.20
2023-01-21T03:10:28.270Z,0.20
2023-01-21T03:13:02.761Z,0.20
2023-01-21T03:15:53.950Z,0.20
2023-01-21T03:18:27.579Z,0.20
2023-01-21T03:21:00.115Z,0.20
2023-01-21T03:23:34.050Z,0.20
2023-01-21T03:26:03.622Z,0.10
2023-01-21T03:28:35.762Z,0.10
2023-01-21T03:31:08.579Z,0.10
2023-01-21T03:33:41.378Z,0.10
2023-01-21T03:36:16.611Z,0.10
2023-01-21T03:38:49.142Z,0.10
2023-01-21T03:41:21.633Z,0.10
2023-01-21T03:43:49.852Z,0.10
2023-01-21T03:46:22.819Z,0.10
2023-01-21T03:48:55.149Z,0.10
2023-01-21T03:51:31.600Z,0.10
2023-01-21T03:54:00.721Z,0.10
2023-01-21T03:56:29.477Z,0.10
2023-01-21T03:58:57.502Z,0.10
2023-01-21T04:01:25.494Z,0.00
2023-01-21T04:03:53.441Z,0.00
2023-01-21T04:06:24.109Z,0.00
2023-01-21T04:08:52.051Z,0.00
2023-01-21T04:11:20.034Z,0.00
2023-01-21T04:13:48.058Z,0.00
2023-01-21T04:16:16.097Z,0.00
2023-01-21T04:18:44.135Z,0.00
2023-01-21T04:21:12.077Z,0.00
2023-01-21T04:23:41.620Z,0.00
2023-01-21T04:26:09.989Z,0.00
2023-01-21T04:28:38.104Z,0.00
2023-01-21T04:31:06.218Z,0.00
2023-01-21T04:33:34.191Z,-0.10
2023-01-21T04:36:02.670Z,-0.10
2023-01-21T04:38:30.606Z,-0.10
2023-01-21T04:41:00.124Z,-0.10
2023-01-21T04:43:28.086Z,-0.10
2023-01-21T04:45:56.040Z,-0.10
2023-01-21T04:48:24.371Z,-0.10
2023-01-21T04:50:52.368Z,-0.10
2023-01-21T04:53:20.401Z,-0.10
2023-01-21T04:55:48.378Z,-0.20
2023-01-21T04:58:17.746Z,-0.10
2023-01-21T05:00:45.713Z,-0.10
2023-01-21T05:03:13.740Z,-0.20
2023-01-21T05:05:41.680Z,-0.20
2023-01-21T05:08:09.651Z,-0.20
2023-01-21T05:10:37.613Z,-0.20
2023-01-21T05:13:05.949Z,-0.20
2023-01-21T05:15:35.373Z,-0.20
2023-01-21T05:18:03.398Z,-0.20
2023-01-21T05:20:31.370Z,-0.20
2023-01-21T05:22:59.356Z,-0.20
2023-01-21T05:25:27.330Z,-0.20
2023-01-21T05:27:56.386Z,-0.30
2023-01-21T05:30:24.447Z,-0.30
2023-01-21T05:32:54.845Z,-0.30
2023-01-21T05:35:24.109Z,-0.30
2023-01-21T05:37:52.182Z,-0.30
2023-01-21T05:40:20.512Z,-0.30
2023-01-21T05:42:48.699Z,-0.30
2023-01-21T05:45:16.857Z,-0.30
2023-01-21T05:47:44.836Z,-0.30
2023-01-21T05:50:14.418Z,-0.30
2023-01-21T05:52:42.637Z,-0.40
2023-01-21T05:55:10.862Z,-0.40
2023-01-21T05:57:38.797Z,-0.40
2023-01-21T06:00:08.000Z,-0.40
2023-01-21T06:02:36.043Z,-0.40
2023-01-21T06:05:04.146Z,-0.40
2023-01-21T06:07:33.442Z,-0.40
2023-01-21T06:10:01.345Z,-0.40
2023-01-21T06:12:29.269Z,-0.40
2023-01-21T06:14:57.246Z,-0.50
2023-01-21T06:17:25.214Z,-0.40
2023-01-21T06:19:53.307Z,-0.50
2023-01-21T06:22:21.425Z,-0.50
2023-01-21T06:24:50.741Z,-0.50
2023-01-21T06:27:18.740Z,-0.50
2023-01-21T06:29:46.781Z,-0.50
2023-01-21T06:32:14.825Z,-0.50
2023-01-21T06:34:44.163Z,-0.50
2023-01-21T06:37:13.692Z,-0.60
2023-01-21T06:39:41.640Z,-0.50
2023-01-21T06:42:11.034Z,-0.60
2023-01-21T06:44:38.987Z,-0.60
2023-01-21T06:47:07.113Z,-0.60
2023-01-21T06:49:35.114Z,-0.60
2023-01-21T06:52:03.219Z,-0.60
2023-01-21T06:54:31.172Z,-0.60
2023-01-21T06:56:59.189Z,-0.60
2023-01-21T06:59:28.548Z,-0.60
2023-01-21T07:01:58.970Z,-0.60
2023-01-21T07:04:27.468Z,-0.60
2023-01-21T07:06:55.548Z,-0.70
2023-01-21T07:09:23.507Z,-0.60
2023-01-21T07:11:51.673Z,-0.60
2023-01-21T07:14:19.637Z,-0.60
2023-01-21T07:16:48.995Z,-0.70
2023-01-21T07:19:17.027Z,-0.70
2023-01-21T07:21:45.036Z,-0.70
2023-01-21T07:24:12.984Z,-0.70
2023-01-21T07:26:41.606Z,-0.70
2023-01-21T07:29:09.802Z,-0.70
2023-01-21T07:31:38.034Z,-0.70
2023-01-21T07:34:07.732Z,-0.70
2023-01-21T07:36:35.687Z,-0.70
2023-01-21T07:39:03.739Z,-0.70
2023-01-21T07:41:31.706Z,-0.70
2023-01-21T07:43:59.726Z,-0.70
2023-01-21T07:46:27.925Z,-0.70
2023-01-21T07:48:55.921Z,-0.70
2023-01-21T07:51:25.231Z,-0.80
2023-01-21T07:53:53.226Z,-0.70
2023-01-21T07:56:21.261Z,-0.70
2023-01-21T07:58:50.448Z,-0.70
2023-01-21T08:01:18.473Z,-0.70
2023-01-21T08:03:46.473Z,-0.70
2023-01-21T08:06:15.396Z,-0.70
2023-01-21T08:08:44.689Z,-0.80
2023-01-21T08:11:12.627Z,-0.80
2023-01-21T08:13:40.638Z,-0.80
2023-01-21T08:16:11.633Z,-0.70
2023-01-21T08:18:39.663Z,-0.80
2023-01-21T08:21:07.597Z,-0.70
2023-01-21T08:23:35.762Z,-0.80
2023-01-21T08:26:05.852Z,-0.70
2023-01-21T08:28:34.144Z,-0.80
2023-01-21T08:31:06.603Z,-0.70
2023-01-21T08:33:34.669Z,-0.70
2023-01-21T08:36:03.038Z,-0.80
2023-01-21T08:38:31.176Z,-0.70
2023-01-21T08:40:59.647Z,-0.70
2023-01-21T08:43:29.062Z,-0.70
2023-01-21T08:45:58.635Z,-0.70
2023-01-21T08:48:26.740Z,-0.70
2023-01-21T08:50:54.798Z,-0.70
2023-01-21T08:53:22.891Z,-0.70
2023-01-21T08:55:50.807Z,-0.70
2023-01-21T08:58:18.765Z,-0.70
2023-01-21T09:00:48.720Z,-0.70
2023-01-21T09:03:19.321Z,-0.60
2023-01-21T09:05:47.370Z,-0.60
2023-01-21T09:08:15.519Z,-0.60
2023-01-21T09:11:00.816Z,-0.60
2023-01-21T09:13:30.203Z,-0.60
2023-01-21T09:15:59.827Z,-0.50
2023-01-21T09:18:27.872Z,-0.50
2023-01-21T09:21:00.620Z,-0.50
2023-01-21T09:23:32.089Z,-0.50
2023-01-21T09:26:05.351Z,-0.50
2023-01-21T09:28:35.531Z,-0.50
2023-01-21T09:31:06.710Z,-0.40
2023-01-21T09:33:37.142Z,-0.40
2023-01-21T09:36:07.082Z,-0.40
2023-01-21T09:38:35.187Z,-0.40
2023-01-21T09:41:13.197Z,-0.30
2023-01-21T09:43:46.179Z,-0.30
2023-01-21T09:46:20.204Z,-0.30
2023-01-21T09:48:50.517Z,-0.30
2023-01-21T09:51:23.436Z,-0.20
2023-01-21T09:53:53.704Z,-0.20
2023-01-21T09:56:28.338Z,-0.20
2023-01-21T09:59:03.858Z,-0.20
2023-01-21T10:01:38.102Z,-0.20
2023-01-21T10:04:27.720Z,-0.10
2023-01-21T10:07:00.688Z,-0.10
2023-01-21T10:09:43.524Z,-0.10
2023-01-21T10:12:30.292Z,-0.10
2023-01-21T10:15:13.861Z,0.00
2023-01-21T10:17:53.389Z,0.00
2023-01-21T10:20:25.455Z,0.00
2023-01-21T10:22:58.460Z,0.00
2023-01-21T10:25:31.216Z,0.00
2023-01-21T10:28:03.562Z,0.10
2023-01-21T10:30:37.708Z,0.10
2023-01-21T10:33:08.407Z,0.10
2023-01-21T10:35:47.927Z,0.10
2023-01-21T10:38:24.493Z,0.10
2023-01-21T10:40:59.938Z,0.20
2023-01-21T10:43:37.476Z,0.20
2023-01-21T10:46:18.164Z,0.20
2023-01-21T10:48:53.943Z,0.20
2023-01-21T10:51:41.581Z,0.20
2023-01-21T10:54:17.030Z,0.30
2023-01-21T10:57:01.669Z,0.30
2023-01-21T10:59:33.819Z,0.30
2023-01-21T11:02:21.671Z,0.30
2023-01-21T11:04:52.191Z,0.30
2023-01-21T11:07:22.364Z,0.30
2023-01-21T11:09:50.587Z,0.40
2023-01-21T11:12:20.263Z,0.40
2023-01-21T11:14:51.615Z,0.40
2023-01-21T11:17:34.439Z,0.40
2023-01-21T11:20:06.412Z,0.40
2023-01-21T11:22:42.862Z,0.40
2023-01-21T11:25:26.592Z,0.50
2023-01-21T11:27:54.588Z,0.50
2023-01-21T11:30:48.665Z,0.50
2023-01-21T11:33:26.896Z,0.50
2023-01-21T11:35:58.311Z,0.60
2023-01-21T11:38:33.855Z,0.60
2023-01-21T11:41:04.356Z,0.60
2023-01-21T11:43:40.851Z,0.60
2023-01-21T11:46:39.249Z,0.60
2023-01-21T11:49:23.127Z,0.70
2023-01-21T11:52:06.597Z,0.70
2023-01-21T11:54:40.012Z,0.70
2023-01-21T11:57:23.529Z,0.80
2023-01-21T11:59:53.244Z,0.80
2023-01-21T12:02:23.895Z,0.80
2023-01-21T12:04:56.574Z,0.80
2023-01-21T12:07:28.523Z,0.90
2023-01-21T12:10:04.325Z,0.90
2023-01-21T12:12:52.669Z,0.90
2023-01-21T12:15:32.655Z,0.90
2023-01-21T12:18:17.804Z,1.00
2023-01-21T12:20:55.238Z,1.00
2023-01-21T12:23:50.247Z,1.00
2023-01-21T12:26:36.067Z,1.00
2023-01-21T12:29:19.570Z,1.00
2023-01-21T12:31:54.587Z,1.10
2023-01-21T12:34:30.146Z,1.10
2023-01-21T12:37:03.329Z,1.10
2023-01-21T12:39:37.372Z,1.10
2023-01-21T12:42:11.055Z,1.10
2023-01-21T12:44:45.113Z,1.20
2023-01-21T12:47:21.929Z,1.20
2023-01-21T12:50:04.386Z,1.20
2023-01-21T12:52:39.795Z,1.20
2023-01-21T12:55:17.945Z,1.30
2023-01-21T12:57:51.712Z,1.30
2023-01-21T13:00:23.343Z,1.30
2023-01-21T13:03:00.250Z,1.30
2023-01-21T13:05:36.151Z,1.40
2023-01-21T13:08:16.494Z,1.40
2023-01-21T13:10:49.324Z,1.40
2023-01-21T13:13:21.596Z,1.40
2023-01-21T13:15:53.241Z,1.40
2023-01-21T13:18:27.101Z,1.50
2023-01-21T13:20:59.619Z,1.50
2023-01-21T13:23:32.687Z,1.50
2023-01-21T13:26:07.925Z,1.50
2023-01-21T13:28:42.267Z,1.50
2023-01-21T13:31:18.234Z,1.60
2023-01-21T13:33:56.741Z,1.60
2023-01-21T13:36:39.213Z,1.60
2023-01-21T13:39:18.378Z,1.60
2023-01-21T13:41:57.646Z,1.60
2023-01-21T13:44:46.356Z,1.60
2023-01-21T13:47:26.765Z,1.60
2023-01-21T13:50:17.964Z,1.70
2023-01-21T13:53:02.483Z,1.70
2023-01-21T13:55:44.268Z,1.70
2023-01-21T13:58:15.653Z,1.70
2023-01-21T14:00:47.724Z,1.70
2023-01-21T14:03:25.110Z,1.70
2023-01-21T14:05:57.414Z,1.70
2023-01-21T14:08:31.394Z,1.70
2023-01-21T14:11:06.587Z,1.70
2023-01-21T14:14:37.893Z,1.70
2023-01-21T14:17:32.140Z,1.70
2023-01-21T14:20:44.619Z,1.80
2023-01-21T14:23:27.633Z,1.80
2023-01-21T14:26:11.451Z,1.80
2023-01-21T14:28:49.229Z,1.80
2023-01-21T14:31:21.892Z,1.80
2023-01-21T14:33:58.700Z,1.80
2023-01-21T14:36:36.023Z,1.80
2023-01-21T14:39:09.658Z,1.80
2023-01-21T14:42:02.387Z,1.80
2023-01-21T14:44:41.452Z,1.80
2023-01-21T14:47:18.980Z,1.80
2023-01-21T14:49:50.072Z,1.80
2023-01-21T14:52:19.965Z,1.80
2023-01-21T14:54:48.947Z,1.80
2023-01-21T14:57:33.021Z,1.80
2023-01-21T15:00:13.939Z,1.80
2023-01-21T15:02:45.147Z,1.80
2023-01-21T15:05:22.415Z,1.80
2023-01-21T15:07:58.822Z,1.80
2023-01-21T15:10:31.785Z,1.80
2023-01-21T15:13:03.306Z,1.80
2023-01-21T15:15:34.984Z,1.80
2023-01-21T15:18:22.685Z,1.80
2023-01-21T15:20:53.049Z,1.80
2023-01-21T15:23:35.947Z,1.80
2023-01-21T15:26:16.545Z,1.80
2023-01-21T15:28:46.114Z,1.80
2023-01-21T15:31:31.424Z,1.80
2023-01-21T15:34:02.002Z,1.80
2023-01-21T15:36:34.709Z,1.80
2023-01-21T15:39:11.116Z,1.70
2023-01-21T15:41:46.924Z,1.70
2023-01-21T15:44:37.393Z,1.70
2023-01-21T15:47:20.546Z,1.70
2023-01-21T15:49:57.007Z,1.70
2023-01-21T15:52:42.203Z,1.70
2023-01-21T15:55:23.039Z,1.70
2023-01-21T15:57:58.896Z,1.60
2023-01-21T16:00:33.750Z,1.60
2023-01-21T16:03:13.802Z,1.60
2023-01-21T16:05:50.573Z,1.60
2023-01-21T16:08:28.039Z,1.60
2023-01-21T16:11:18.571Z,1.60
2023-01-21T16:13:54.727Z,1.60
2023-01-21T16:16:37.528Z,1.60
2023-01-21T16:19:08.856Z,1.60
2023-01-21T16:21:40.151Z,1.50
2023-01-21T16:24:13.498Z,1.50
2023-01-21T16:26:41.642Z,1.50
2023-01-21T16:29:13.172Z,1.50
2023-01-21T16:31:48.460Z,1.50
2023-01-21T16:34:24.020Z,1.50
2023-01-21T16:36:52.326Z,1.50
2023-01-21T16:39:21.718Z,1.50
2023-01-21T16:42:01.642Z,1.50
2023-01-21T16:44:30.480Z,1.50
2023-01-21T16:46:58.721Z,1.50
2023-01-21T16:49:27.187Z,1.40
2023-01-21T16:51:57.568Z,1.40
2023-01-21T16:54:29.384Z,1.40
2023-01-21T16:56:59.849Z,1.40
2023-01-21T16:59:30.448Z,1.40
2023-01-21T17:02:00.124Z,1.40
2023-01-21T17:04:30.244Z,1.40
2023-01-21T17:06:59.283Z,1.40
2023-01-21T17:09:32.683Z,1.40
2023-01-21T17:12:05.858Z,1.40
2023-01-21T17:14:35.505Z,1.40
2023-01-21T17:17:08.236Z,1.40
2023-01-21T17:19:39.136Z,1.40
2023-01-21T17:22:15.346Z,1.40
2023-01-21T17:24:56.664Z,1.40
2023-01-21T17:27:26.356Z,1.40
2023-01-21T17:29:54.472Z,1.40
2023-01-21T17:32:28.339Z,1.40
2023-01-21T17:35:10.192Z,1.40
2023-01-21T17:37:46.252Z,1.40
2023-01-21T17:40:34.561Z,1.40
2023-01-21T17:43:16.835Z,1.40
2023-01-21T17:45:46.865Z,1.40
2023-01-21T17:48:24.047Z,1.40
2023-01-21T17:50:52.642Z,1.40
2023-01-21T17:53:25.980Z,1.40
2023-01-21T17:56:00.902Z,1.40
2023-01-21T17:58:49.544Z,1.40
2023-01-21T18:01:19.128Z,1.40
2023-01-21T18:03:47.192Z,1.40
2023-01-21T18:06:19.903Z,1.40
2023-01-21T18:08:47.945Z,1.40
2023-01-21T18:11:18.951Z,1.40
2023-01-21T18:13:46.898Z,1.30
2023-01-21T18:16:15.418Z,1.30
2023-01-21T18:18:43.445Z,1.30
2023-01-21T18:21:19.852Z,1.30
2023-01-21T18:23:48.329Z,1.40
2023-01-21T18:26:26.126Z,1.30
2023-01-21T18:28:54.125Z,1.30
2023-01-21T18:31:22.979Z,1.30
2023-01-21T18:33:51.178Z,1.30
2023-01-21T18:36:19.152Z,1.30
2023-01-21T18:38:47.131Z,1.30
2023-01-21T18:41:15.099Z,1.30
2023-01-21T18:43:44.384Z,1.20
2023-01-21T18:46:13.941Z,1.20
2023-01-21T18:48:42.992Z,1.20
2023-01-21T18:51:11.292Z,1.20
2023-01-21T18:53:39.383Z,1.20
2023-01-21T18:56:13.124Z,1.20
2023-01-21T18:58:41.118Z,1.10
2023-01-21T19:01:21.938Z,1.10
2023-01-21T19:03:52.107Z,1.10
2023-01-21T19:06:20.190Z,1.10
2023-01-21T19:08:48.862Z,1.10
2023-01-21T19:11:17.993Z,1.10
2023-01-21T19:13:45.966Z,1.00
2023-01-21T19:16:18.042Z,1.00
2023-01-21T19:18:46.147Z,1.00
2023-01-21T19:21:14.217Z,1.00
2023-01-21T19:23:42.347Z,1.00
2023-01-21T19:26:13.613Z,1.00
2023-01-21T19:28:41.662Z,1.00
2023-01-21T19:31:09.739Z,0.90
2023-01-21T19:33:41.902Z,0.90
2023-01-21T19:36:16.417Z,0.90
2023-01-21T19:38:46.696Z,0.90
2023-01-21T19:41:14.646Z,0.90
2023-01-21T19:43:42.664Z,0.90
2023-01-21T19:46:12.570Z,0.80
2023-01-21T19:48:42.111Z,0.80
2023-01-21T19:51:10.796Z,0.80
2023-01-21T19:53:38.835Z,0.80
2023-01-21T19:56:07.869Z,0.80
2023-01-21T19:58:36.309Z,0.80
2023-01-21T20:01:04.308Z,0.70
2023-01-21T20:03:32.267Z,0.70
2023-01-21T20:06:03.155Z,0.70
2023-01-21T20:08:32.528Z,0.70
2023-01-21T20:11:00.487Z,0.70
2023-01-21T20:13:32.143Z,0.70
2023-01-21T20:16:03.554Z,0.60
2023-01-21T20:18:33.367Z,0.60
2023-01-21T20:21:02.667Z,0.60
2023-01-21T20:23:32.619Z,0.60
2023-01-21T20:26:01.134Z,0.50
2023-01-21T20:28:39.686Z,0.50
2023-01-21T20:31:08.581Z,0.50
2023-01-21T20:33:37.329Z,0.50
2023-01-21T20:36:08.589Z,0.50
2023-01-21T20:38:38.417Z,0.50
2023-01-21T20:41:07.238Z,0.40
2023-01-21T20:43:35.215Z,0.40
2023-01-21T20:46:06.477Z,0.40
2023-01-21T20:48:37.233Z,0.40
2023-01-21T20:51:07.420Z,0.40
2023-01-21T20:53:35.531Z,0.40
2023-01-21T20:56:15.353Z,0.30
2023-01-21T20:58:45.022Z,0.30
2023-01-21T21:01:13.590Z,0.30
2023-01-21T21:03:41.828Z,0.30
2023-01-21T21:06:15.109Z,0.30
2023-01-21T21:08:43.314Z,0.30
2023-01-21T21:11:11.686Z,0.20
2023-01-21T21:13:39.673Z,0.20
2023-01-21T21:16:18.946Z,0.20
2023-01-21T21:18:47.693Z,0.20
2023-01-21T21:21:17.713Z,0.20
2023-01-21T21:23:46.796Z,0.20
2023-01-21T21:26:22.105Z,0.20
2023-01-21T21:28:50.396Z,0.20
2023-01-21T21:31:19.124Z,0.20
2023-01-21T21:33:47.264Z,0.10
2023-01-21T21:36:18.368Z,0.10
2023-01-21T21:38:47.115Z,0.10
2023-01-21T21:41:34.378Z,0.10
2023-01-21T21:44:02.366Z,0.10
2023-01-21T21:46:47.930Z,0.10
2023-01-21T21:49:16.051Z,0.10
2023-01-21T21:51:45.963Z,0.00
2023-01-21T21:54:16.028Z,0.00
2023-01-21T21:56:44.091Z,0.00
2023-01-21T21:59:12.585Z,0.00
2023-01-21T22:01:42.561Z,0.00
2023-01-21T22:04:10.627Z,0.00
2023-01-21T22:06:38.787Z,0.00
2023-01-21T22:09:08.336Z,0.00
2023-01-21T22:11:36.275Z,0.00
2023-01-21T22:14:04.828Z,-0.10
2023-01-21T22:16:33.545Z,0.00
2023-01-21T22:19:02.043Z,0.00
2023-01-21T22:21:32.930Z,-0.10
2023-01-21T22:24:01.241Z,-0.10
2023-01-21T22:26:31.146Z,-0.10
2023-01-21T22:28:59.309Z,-0.10
2023-01-21T22:31:29.058Z,-0.10
2023-01-21T22:33:57.451Z,-0.10
2023-01-21T22:36:27.337Z,-0.10
2023-01-21T22:38:55.535Z,-0.10
2023-01-21T22:41:24.399Z,-0.20
2023-01-21T22:43:54.736Z,-0.20
2023-01-21T22:46:25.030Z,-0.20
2023-01-21T22:48:54.667Z,-0.20
2023-01-21T22:51:23.389Z,-0.20
2023-01-21T22:53:52.248Z,-0.20
2023-01-21T22:56:25.395Z,-0.20
2023-01-21T22:58:58.210Z,-0.20
2023-01-21T23:01:28.067Z,-0.20
2023-01-21T23:03:56.206Z,-0.20
2023-01-21T23:06:24.892Z,-0.30
2023-01-21T23:08:53.110Z,-0.20
2023-01-21T23:11:21.504Z,-0.30
2023-01-21T23:13:50.201Z,-0.30
2023-01-21T23:16:21.080Z,-0.30
2023-01-21T23:18:49.878Z,-0.30
2023-01-21T23:21:20.368Z,-0.30
2023-01-21T23:23:48.445Z,-0.30
2023-01-21T23:26:19.057Z,-0.30
2023-01-21T23:28:47.212Z,-0.40
2023-01-21T23:31:17.612Z,-0.40
2023-01-21T23:33:50.632Z,-0.40
2023-01-21T23:36:19.066Z,-0.40
2023-01-21T23:38:47.252Z,-0.40
2023-01-21T23:41:19.718Z,-0.40
2023-01-21T23:43:47.855Z,-0.40
2023-01-21T23:46:19.520Z,-0.50
2023-01-21T23:48:49.187Z,-0.50
2023-01-21T23:51:18.589Z,-0.50
2023-01-21T23:53:47.674Z,-0.50
2023-01-21T23:56:17.449Z,-0.50
2023-01-21T23:58:45.404Z,-0.60
